Accueil
METAR-TAF:

METAR-TAF

Aéroports :

Aéroport de Djanet - Tiska

Djanet, Algérie

latitude: 24-33N, longitude: 009-28E, altitude: 1054 m

Observation

Le bulletin a été fait il y a 28 minutes, à 17:00 UTC
Vent 7 kt de sud-est
Température 33°C
Pression 1018 hPa
Visibilité 10 km ou plus
pas de nuages en-dessous de 1500 mètres et pas de cumulonimbus.

METAR: DAAJ 231700Z 14007KT CAVOK 33/// Q1018

Heure: 18:28 (17:28 UTC)

Prévision

Le bulletin a été fait il y a 6 heures et 28 minutes, à 11:00 UTC
Prévision valable du 23 à 12 UTC au 24 à 12 UTC
Vent 10 kt de sud-est
Visibilité 10 km ou plus
pas de nuages en-dessous de 1500 mètres et pas de cumulonimbus.

TAF: DAAJ 231100Z 2312/2412 14010KT CAVOK

Observations et prévisions météorologiques de plus de 4000 aéroports (messages METAR et TAF).

Les stations disponibles sont représentées par des disques jaunes et rouges sur la carte.

Passer la souris dessus pour voir le nom de la station.

Cliquer dessus pour voir les observations et prévisions météorologiques.

Pour changer de carte: cliquez sur les boutons verts avec une croix noire pour zoomer, sur le bouton vert avec un tiret pour effectuer un zoom arrière, ou sur les flèches vertes pour les cartes adjacentes.


METAR-TAF: